sensor_id;sensor_type;location;lat;lon;timestamp;P1;durP1;ratioP1;P2;durP2;ratioP2
31004;SDS011;17676;52.254;4.490;2022-11-20T00:00:29;20.13;;;12.63;;
31004;SDS011;17676;52.254;4.490;2022-11-20T00:02:54;21.10;;;13.23;;
31004;SDS011;17676;52.254;4.490;2022-11-20T00:05:19;27.57;;;16.80;;
31004;SDS011;17676;52.254;4.490;2022-11-20T00:07:45;24.90;;;14.93;;
31004;SDS011;17676;52.254;4.490;2022-11-20T00:10:11;23.07;;;14.93;;
31004;SDS011;17676;52.254;4.490;2022-11-20T00:12:37;26.50;;;16.10;;
31004;SDS011;17676;52.254;4.490;2022-11-20T00:15:03;25.50;;;16.30;;
31004;SDS011;17676;52.254;4.490;2022-11-20T00:17:28;22.30;;;14.17;;
31004;SDS011;17676;52.254;4.490;2022-11-20T00:19:54;18.37;;;12.43;;
31004;SDS011;17676;52.254;4.490;2022-11-20T00:22:19;21.80;;;12.63;;
31004;SDS011;17676;52.254;4.490;2022-11-20T00:24:44;20.10;;;12.30;;
31004;SDS011;17676;52.254;4.490;2022-11-20T00:27:12;17.70;;;12.30;;
31004;SDS011;17676;52.254;4.490;2022-11-20T00:29:38;18.40;;;12.23;;
31004;SDS011;17676;52.254;4.490;2022-11-20T00:32:03;18.53;;;11.93;;
31004;SDS011;17676;52.254;4.490;2022-11-20T00:34:29;21.73;;;13.83;;
31004;SDS011;17676;52.254;4.490;2022-11-20T00:36:58;23.60;;;14.90;;
31004;SDS011;17676;52.254;4.490;2022-11-20T00:39:25;29.80;;;15.57;;
31004;SDS011;17676;52.254;4.490;2022-11-20T00:41:50;23.97;;;15.10;;
31004;SDS011;17676;52.254;4.490;2022-11-20T00:44:16;23.83;;;14.67;;
31004;SDS011;17676;52.254;4.490;2022-11-20T00:46:42;24.43;;;14.53;;
31004;SDS011;17676;52.254;4.490;2022-11-20T00:49:07;21.73;;;14.20;;
31004;SDS011;17676;52.254;4.490;2022-11-20T00:51:32;27.80;;;15.80;;
31004;SDS011;17676;52.254;4.490;2022-11-20T00:53:58;25.00;;;14.90;;
31004;SDS011;17676;52.254;4.490;2022-11-20T00:56:25;21.87;;;13.93;;
31004;SDS011;17676;52.254;4.490;2022-11-20T00:58:50;19.33;;;12.57;;
31004;SDS011;17676;52.254;4.490;2022-11-20T01:01:17;20.33;;;12.57;;
31004;SDS011;17676;52.254;4.490;2022-11-20T01:03:44;18.60;;;12.03;;
31004;SDS011;17676;52.254;4.490;2022-11-20T01:06:10;20.10;;;13.27;;
31004;SDS011;17676;52.254;4.490;2022-11-20T01:08:36;18.87;;;12.87;;
31004;SDS011;17676;52.254;4.490;2022-11-20T01:11:06;21.97;;;12.97;;
31004;SDS011;17676;52.254;4.490;2022-11-20T01:13:32;20.27;;;12.77;;
31004;SDS011;17676;52.254;4.490;2022-11-20T01:16:08;21.20;;;13.00;;
31004;SDS011;17676;52.254;4.490;2022-11-20T01:18:34;21.33;;;13.47;;
31004;SDS011;17676;52.254;4.490;2022-11-20T01:21:03;17.67;;;12.23;;
31004;SDS011;17676;52.254;4.490;2022-11-20T01:23:36;23.50;;;13.10;;
31004;SDS011;17676;52.254;4.490;2022-11-20T01:26:03;18.33;;;12.13;;
31004;SDS011;17676;52.254;4.490;2022-11-20T01:28:29;19.97;;;12.67;;
31004;SDS011;17676;52.254;4.490;2022-11-20T01:30:54;25.27;;;13.30;;
31004;SDS011;17676;52.254;4.490;2022-11-20T01:33:19;21.40;;;14.13;;
31004;SDS011;17676;52.254;4.490;2022-11-20T01:35:45;23.93;;;14.83;;
31004;SDS011;17676;52.254;4.490;2022-11-20T01:38:10;24.37;;;14.83;;
31004;SDS011;17676;52.254;4.490;2022-11-20T01:40:38;24.17;;;14.80;;
31004;SDS011;17676;52.254;4.490;2022-11-20T01:43:11;23.87;;;14.87;;
31004;SDS011;17676;52.254;4.490;2022-11-20T01:45:57;27.30;;;15.83;;
31004;SDS011;17676;52.254;4.490;2022-11-20T01:48:23;25.87;;;16.37;;
31004;SDS011;17676;52.254;4.490;2022-11-20T01:50:51;26.47;;;16.63;;
31004;SDS011;17676;52.254;4.490;2022-11-20T01:53:18;27.73;;;16.13;;
31004;SDS011;17676;52.254;4.490;2022-11-20T01:55:49;24.83;;;15.67;;
31004;SDS011;17676;52.254;4.490;2022-11-20T01:58:14;25.87;;;15.77;;
31004;SDS011;17676;52.254;4.490;2022-11-20T02:00:40;29.87;;;16.93;;
31004;SDS011;17676;52.254;4.490;2022-11-20T02:03:07;22.67;;;14.30;;
31004;SDS011;17676;52.254;4.490;2022-11-20T02:05:35;24.37;;;15.77;;
31004;SDS011;17676;52.254;4.490;2022-11-20T02:08:01;25.70;;;15.23;;
31004;SDS011;17676;52.254;4.490;2022-11-20T02:10:27;23.50;;;15.13;;
31004;SDS011;17676;52.254;4.490;2022-11-20T02:12:53;24.13;;;14.43;;
31004;SDS011;17676;52.254;4.490;2022-11-20T02:15:37;26.10;;;14.53;;
31004;SDS011;17676;52.254;4.490;2022-11-20T02:18:02;24.63;;;14.40;;
31004;SDS011;17676;52.254;4.490;2022-11-20T02:20:29;24.73;;;16.13;;
31004;SDS011;17676;52.254;4.490;2022-11-20T02:22:57;25.00;;;15.03;;
31004;SDS011;17676;52.254;4.490;2022-11-20T02:25:24;24.90;;;15.57;;
31004;SDS011;17676;52.254;4.490;2022-11-20T02:27:51;23.63;;;14.33;;
31004;SDS011;17676;52.254;4.490;2022-11-20T02:30:16;23.47;;;14.27;;
31004;SDS011;17676;52.254;4.490;2022-11-20T02:32:41;23.20;;;14.27;;
31004;SDS011;17676;52.254;4.490;2022-11-20T02:35:40;23.50;;;14.67;;
31004;SDS011;17676;52.254;4.490;2022-11-20T02:37:59;26.50;;;14.83;;
31004;SDS011;17676;52.254;4.490;2022-11-20T02:40:25;22.57;;;15.37;;
31004;SDS011;17676;52.254;4.490;2022-11-20T02:42:51;27.47;;;15.67;;
31004;SDS011;17676;52.254;4.490;2022-11-20T02:45:17;24.27;;;14.97;;
31004;SDS011;17676;52.254;4.490;2022-11-20T02:47:46;23.87;;;14.00;;
31004;SDS011;17676;52.254;4.490;2022-11-20T02:50:11;24.20;;;14.63;;
31004;SDS011;17676;52.254;4.490;2022-11-20T02:52:37;23.77;;;14.27;;
31004;SDS011;17676;52.254;4.490;2022-11-20T02:55:03;20.80;;;13.53;;
31004;SDS011;17676;52.254;4.490;2022-11-20T02:57:28;23.80;;;14.13;;
31004;SDS011;17676;52.254;4.490;2022-11-20T02:59:53;23.13;;;13.63;;
31004;SDS011;17676;52.254;4.490;2022-11-20T03:02:19;22.07;;;13.77;;
31004;SDS011;17676;52.254;4.490;2022-11-20T03:36:03;23.53;;;13.50;;
31004;SDS011;17676;52.254;4.490;2022-11-20T03:38:29;25.30;;;13.47;;
31004;SDS011;17676;52.254;4.490;2022-11-20T03:40:58;21.27;;;12.93;;
31004;SDS011;17676;52.254;4.490;2022-11-20T03:43:23;21.00;;;13.07;;
31004;SDS011;17676;52.254;4.490;2022-11-20T03:45:48;23.40;;;13.17;;
31004;SDS011;17676;52.254;4.490;2022-11-20T03:48:13;24.43;;;13.73;;
31004;SDS011;17676;52.254;4.490;2022-11-20T03:50:39;23.77;;;13.60;;
31004;SDS011;17676;52.254;4.490;2022-11-20T03:53:04;22.80;;;13.40;;
31004;SDS011;17676;52.254;4.490;2022-11-20T03:55:29;20.80;;;13.27;;
31004;SDS011;17676;52.254;4.490;2022-11-20T03:57:54;22.43;;;12.93;;
31004;SDS011;17676;52.254;4.490;2022-11-20T04:00:20;24.77;;;13.43;;
31004;SDS011;17676;52.254;4.490;2022-11-20T04:02:45;21.10;;;12.80;;
31004;SDS011;17676;52.254;4.490;2022-11-20T04:05:11;22.57;;;13.60;;
31004;SDS011;17676;52.254;4.490;2022-11-20T04:07:36;20.23;;;13.27;;
31004;SDS011;17676;52.254;4.490;2022-11-20T04:10:02;21.27;;;13.27;;
31004;SDS011;17676;52.254;4.490;2022-11-20T04:12:27;22.87;;;13.67;;
31004;SDS011;17676;52.254;4.490;2022-11-20T04:14:56;21.20;;;13.47;;
31004;SDS011;17676;52.254;4.490;2022-11-20T04:17:21;23.87;;;13.60;;
31004;SDS011;17676;52.254;4.490;2022-11-20T04:19:46;22.77;;;13.97;;
31004;SDS011;17676;52.254;4.490;2022-11-20T04:22:12;24.93;;;13.20;;
31004;SDS011;17676;52.254;4.490;2022-11-20T04:24:37;21.57;;;13.97;;
31004;SDS011;17676;52.254;4.490;2022-11-20T04:27:02;22.40;;;13.67;;
31004;SDS011;17676;52.254;4.490;2022-11-20T04:29:27;20.47;;;13.53;;
31004;SDS011;17676;52.254;4.490;2022-11-20T04:31:53;20.87;;;13.53;;
31004;SDS011;17676;52.254;4.490;2022-11-20T04:34:18;21.87;;;13.00;;
31004;SDS011;17676;52.254;4.490;2022-11-20T04:36:43;24.03;;;14.90;;
31004;SDS011;17676;52.254;4.490;2022-11-20T04:39:12;22.13;;;14.47;;
31004;SDS011;17676;52.254;4.490;2022-11-20T04:41:39;21.30;;;13.77;;
31004;SDS011;17676;52.254;4.490;2022-11-20T04:44:05;20.07;;;13.77;;
31004;SDS011;17676;52.254;4.490;2022-11-20T04:46:31;21.47;;;14.03;;
31004;SDS011;17676;52.254;4.490;2022-11-20T04:48:57;23.17;;;13.83;;
31004;SDS011;17676;52.254;4.490;2022-11-20T04:51:22;22.23;;;14.17;;
31004;SDS011;17676;52.254;4.490;2022-11-20T04:53:47;21.83;;;14.37;;
31004;SDS011;17676;52.254;4.490;2022-11-20T04:56:13;26.80;;;14.17;;
31004;SDS011;17676;52.254;4.490;2022-11-20T04:58:38;22.77;;;14.33;;
31004;SDS011;17676;52.254;4.490;2022-11-20T05:01:04;21.63;;;14.13;;
31004;SDS011;17676;52.254;4.490;2022-11-20T05:03:29;24.73;;;14.43;;
31004;SDS011;17676;52.254;4.490;2022-11-20T05:05:55;23.03;;;13.47;;
31004;SDS011;17676;52.254;4.490;2022-11-20T05:08:20;24.50;;;14.83;;
31004;SDS011;17676;52.254;4.490;2022-11-20T05:10:45;24.13;;;14.47;;
31004;SDS011;17676;52.254;4.490;2022-11-20T05:13:11;22.47;;;13.13;;
31004;SDS011;17676;52.254;4.490;2022-11-20T05:15:36;25.43;;;14.03;;
31004;SDS011;17676;52.254;4.490;2022-11-20T05:18:01;22.30;;;15.00;;
31004;SDS011;17676;52.254;4.490;2022-11-20T05:20:26;23.07;;;13.87;;
31004;SDS011;17676;52.254;4.490;2022-11-20T05:22:52;21.50;;;14.43;;
31004;SDS011;17676;52.254;4.490;2022-11-20T05:25:17;21.37;;;14.00;;
31004;SDS011;17676;52.254;4.490;2022-11-20T05:27:42;20.80;;;13.93;;
31004;SDS011;17676;52.254;4.490;2022-11-20T05:30:08;22.23;;;13.83;;
31004;SDS011;17676;52.254;4.490;2022-11-20T05:32:33;22.80;;;13.83;;
31004;SDS011;17676;52.254;4.490;2022-11-20T05:34:58;21.10;;;13.53;;
31004;SDS011;17676;52.254;4.490;2022-11-20T05:37:23;21.60;;;14.70;;
31004;SDS011;17676;52.254;4.490;2022-11-20T05:39:49;23.03;;;14.80;;
31004;SDS011;17676;52.254;4.490;2022-11-20T05:42:14;26.23;;;15.67;;
31004;SDS011;17676;52.254;4.490;2022-11-20T05:45:01;24.27;;;15.57;;
31004;SDS011;17676;52.254;4.490;2022-11-20T05:47:26;23.37;;;15.20;;
31004;SDS011;17676;52.254;4.490;2022-11-20T05:49:52;21.70;;;14.00;;
31004;SDS011;17676;52.254;4.490;2022-11-20T05:52:17;23.80;;;15.27;;
31004;SDS011;17676;52.254;4.490;2022-11-20T05:54:43;28.70;;;15.10;;
31004;SDS011;17676;52.254;4.490;2022-11-20T05:57:08;25.13;;;14.70;;
31004;SDS011;17676;52.254;4.490;2022-11-20T05:59:34;22.03;;;14.13;;
31004;SDS011;17676;52.254;4.490;2022-11-20T06:01:59;25.40;;;15.27;;
31004;SDS011;17676;52.254;4.490;2022-11-20T06:04:24;21.53;;;14.97;;
31004;SDS011;17676;52.254;4.490;2022-11-20T06:06:49;20.40;;;13.63;;
31004;SDS011;17676;52.254;4.490;2022-11-20T06:09:15;21.47;;;14.77;;
31004;SDS011;17676;52.254;4.490;2022-11-20T06:11:40;21.37;;;13.50;;
31004;SDS011;17676;52.254;4.490;2022-11-20T06:14:05;21.27;;;14.53;;
31004;SDS011;17676;52.254;4.490;2022-11-20T06:16:30;20.27;;;13.63;;
31004;SDS011;17676;52.254;4.490;2022-11-20T06:18:57;23.50;;;14.60;;
31004;SDS011;17676;52.254;4.490;2022-11-20T06:21:22;23.37;;;15.03;;
31004;SDS011;17676;52.254;4.490;2022-11-20T06:23:48;21.53;;;13.70;;
31004;SDS011;17676;52.254;4.490;2022-11-20T06:26:18;23.40;;;14.73;;
31004;SDS011;17676;52.254;4.490;2022-11-20T06:28:44;24.17;;;15.33;;
31004;SDS011;17676;52.254;4.490;2022-11-20T06:31:13;23.40;;;14.53;;
31004;SDS011;17676;52.254;4.490;2022-11-20T06:33:39;21.43;;;14.07;;
31004;SDS011;17676;52.254;4.490;2022-11-20T06:36:05;22.43;;;14.97;;
31004;SDS011;17676;52.254;4.490;2022-11-20T06:38:31;20.97;;;14.47;;
31004;SDS011;17676;52.254;4.490;2022-11-20T06:40:58;25.80;;;15.03;;
31004;SDS011;17676;52.254;4.490;2022-11-20T06:43:23;23.43;;;14.67;;
31004;SDS011;17676;52.254;4.490;2022-11-20T06:45:52;21.10;;;14.00;;
31004;SDS011;17676;52.254;4.490;2022-11-20T06:48:18;27.30;;;14.97;;
31004;SDS011;17676;52.254;4.490;2022-11-20T06:50:43;23.07;;;14.40;;
31004;SDS011;17676;52.254;4.490;2022-11-20T06:53:08;24.90;;;15.30;;
31004;SDS011;17676;52.254;4.490;2022-11-20T06:55:33;25.03;;;16.03;;
31004;SDS011;17676;52.254;4.490;2022-11-20T06:57:59;21.17;;;14.50;;
31004;SDS011;17676;52.254;4.490;2022-11-20T07:00:24;25.50;;;15.57;;
31004;SDS011;17676;52.254;4.490;2022-11-20T07:02:49;28.17;;;16.30;;
31004;SDS011;17676;52.254;4.490;2022-11-20T07:05:15;24.70;;;15.77;;
31004;SDS011;17676;52.254;4.490;2022-11-20T07:07:40;25.33;;;15.87;;
31004;SDS011;17676;52.254;4.490;2022-11-20T07:10:05;21.93;;;14.87;;
31004;SDS011;17676;52.254;4.490;2022-11-20T07:12:30;23.57;;;14.33;;
31004;SDS011;17676;52.254;4.490;2022-11-20T07:14:56;24.00;;;15.00;;
31004;SDS011;17676;52.254;4.490;2022-11-20T07:17:21;26.80;;;14.83;;
31004;SDS011;17676;52.254;4.490;2022-11-20T07:19:46;22.90;;;15.70;;
31004;SDS011;17676;52.254;4.490;2022-11-20T07:22:12;26.93;;;15.90;;
31004;SDS011;17676;52.254;4.490;2022-11-20T07:24:38;23.13;;;15.20;;
31004;SDS011;17676;52.254;4.490;2022-11-20T07:27:04;26.17;;;15.93;;
31004;SDS011;17676;52.254;4.490;2022-11-20T07:29:29;23.90;;;15.43;;
31004;SDS011;17676;52.254;4.490;2022-11-20T07:31:54;23.83;;;15.30;;
31004;SDS011;17676;52.254;4.490;2022-11-20T07:34:21;26.90;;;16.27;;
31004;SDS011;17676;52.254;4.490;2022-11-20T07:36:46;22.87;;;15.07;;
31004;SDS011;17676;52.254;4.490;2022-11-20T07:39:11;23.37;;;15.83;;
31004;SDS011;17676;52.254;4.490;2022-11-20T07:41:37;25.80;;;16.50;;
31004;SDS011;17676;52.254;4.490;2022-11-20T07:44:02;25.70;;;15.47;;
31004;SDS011;17676;52.254;4.490;2022-11-20T07:46:27;24.07;;;15.97;;
31004;SDS011;17676;52.254;4.490;2022-11-20T07:48:52;24.87;;;14.87;;
31004;SDS011;17676;52.254;4.490;2022-11-20T07:51:18;23.10;;;16.03;;
31004;SDS011;17676;52.254;4.490;2022-11-20T07:53:43;24.87;;;15.77;;
31004;SDS011;17676;52.254;4.490;2022-11-20T07:56:08;23.20;;;15.60;;
31004;SDS011;17676;52.254;4.490;2022-11-20T07:58:33;24.37;;;15.17;;
31004;SDS011;17676;52.254;4.490;2022-11-20T08:01:03;23.53;;;15.07;;
31004;SDS011;17676;52.254;4.490;2022-11-20T08:03:29;23.00;;;15.97;;
31004;SDS011;17676;52.254;4.490;2022-11-20T08:05:54;24.83;;;16.43;;
31004;SDS011;17676;52.254;4.490;2022-11-20T08:08:23;22.87;;;15.87;;
31004;SDS011;17676;52.254;4.490;2022-11-20T08:10:48;24.63;;;15.63;;
31004;SDS011;17676;52.254;4.490;2022-11-20T08:13:13;22.30;;;15.20;;
31004;SDS011;17676;52.254;4.490;2022-11-20T08:15:57;28.47;;;16.60;;
31004;SDS011;17676;52.254;4.490;2022-11-20T08:18:23;25.77;;;16.40;;
31004;SDS011;17676;52.254;4.490;2022-11-20T08:20:48;26.33;;;15.87;;
31004;SDS011;17676;52.254;4.490;2022-11-20T08:23:13;26.17;;;16.90;;
31004;SDS011;17676;52.254;4.490;2022-11-20T08:25:39;22.90;;;15.07;;
31004;SDS011;17676;52.254;4.490;2022-11-20T08:28:05;25.23;;;15.90;;
31004;SDS011;17676;52.254;4.490;2022-11-20T08:30:31;20.50;;;14.90;;
31004;SDS011;17676;52.254;4.490;2022-11-20T08:33:00;22.83;;;15.50;;
31004;SDS011;17676;52.254;4.490;2022-11-20T08:35:26;23.93;;;16.10;;
31004;SDS011;17676;52.254;4.490;2022-11-20T08:37:51;24.83;;;16.53;;
31004;SDS011;17676;52.254;4.490;2022-11-20T08:40:17;25.60;;;16.30;;
31004;SDS011;17676;52.254;4.490;2022-11-20T08:42:47;25.40;;;15.60;;
31004;SDS011;17676;52.254;4.490;2022-11-20T08:45:14;23.30;;;16.13;;
31004;SDS011;17676;52.254;4.490;2022-11-20T08:47:40;24.07;;;15.70;;
31004;SDS011;17676;52.254;4.490;2022-11-20T08:50:06;25.13;;;16.43;;
31004;SDS011;17676;52.254;4.490;2022-11-20T08:52:31;27.23;;;17.17;;
31004;SDS011;17676;52.254;4.490;2022-11-20T08:54:57;24.33;;;16.73;;
31004;SDS011;17676;52.254;4.490;2022-11-20T08:57:22;24.97;;;16.10;;
31004;SDS011;17676;52.254;4.490;2022-11-20T08:59:48;22.73;;;16.70;;
31004;SDS011;17676;52.254;4.490;2022-11-20T09:02:13;26.30;;;17.80;;
31004;SDS011;17676;52.254;4.490;2022-11-20T09:04:40;28.53;;;17.07;;
31004;SDS011;17676;52.254;4.490;2022-11-20T09:07:06;25.17;;;17.00;;
31004;SDS011;17676;52.254;4.490;2022-11-20T09:09:33;25.70;;;17.03;;
31004;SDS011;17676;52.254;4.490;2022-11-20T09:12:03;26.93;;;18.03;;
31004;SDS011;17676;52.254;4.490;2022-11-20T09:14:28;25.80;;;18.40;;
31004;SDS011;17676;52.254;4.490;2022-11-20T09:16:56;27.17;;;18.17;;
31004;SDS011;17676;52.254;4.490;2022-11-20T09:19:25;25.67;;;16.57;;
31004;SDS011;17676;52.254;4.490;2022-11-20T09:21:51;26.70;;;16.97;;
31004;SDS011;17676;52.254;4.490;2022-11-20T09:24:16;28.53;;;17.20;;
31004;SDS011;17676;52.254;4.490;2022-11-20T09:26:41;25.67;;;17.30;;
31004;SDS011;17676;52.254;4.490;2022-11-20T09:29:06;24.97;;;17.13;;
31004;SDS011;17676;52.254;4.490;2022-11-20T09:31:32;28.73;;;18.23;;
31004;SDS011;17676;52.254;4.490;2022-11-20T09:33:57;25.77;;;17.37;;
31004;SDS011;17676;52.254;4.490;2022-11-20T09:36:22;25.70;;;17.20;;
31004;SDS011;17676;52.254;4.490;2022-11-20T09:38:48;24.87;;;16.87;;
31004;SDS011;17676;52.254;4.490;2022-11-20T09:46:36;24.93;;;16.90;;
31004;SDS011;17676;52.254;4.490;2022-11-20T09:56:30;25.00;;;17.20;;
31004;SDS011;17676;52.254;4.490;2022-11-20T09:58:59;22.20;;;16.50;;
31004;SDS011;17676;52.254;4.490;2022-11-20T10:01:29;24.00;;;17.23;;
31004;SDS011;17676;52.254;4.490;2022-11-20T10:04:04;26.47;;;17.57;;
31004;SDS011;17676;52.254;4.490;2022-11-20T10:06:37;31.57;;;18.27;;
31004;SDS011;17676;52.254;4.490;2022-11-20T10:09:07;25.87;;;17.73;;
31004;SDS011;17676;52.254;4.490;2022-11-20T10:11:43;25.97;;;18.13;;
31004;SDS011;17676;52.254;4.490;2022-11-20T10:19:11;27.23;;;18.77;;
31004;SDS011;17676;52.254;4.490;2022-11-20T10:21:44;25.90;;;18.17;;
31004;SDS011;17676;52.254;4.490;2022-11-20T10:26:53;28.40;;;18.93;;
31004;SDS011;17676;52.254;4.490;2022-11-20T10:29:26;25.83;;;18.47;;
31004;SDS011;17676;52.254;4.490;2022-11-20T10:31:59;31.57;;;20.30;;
31004;SDS011;17676;52.254;4.490;2022-11-20T10:34:43;26.00;;;17.83;;
31004;SDS011;17676;52.254;4.490;2022-11-20T10:37:24;37.57;;;19.57;;
31004;SDS011;17676;52.254;4.490;2022-11-20T10:42:23;25.90;;;18.63;;
31004;SDS011;17676;52.254;4.490;2022-11-20T10:44:52;26.70;;;19.07;;
31004;SDS011;17676;52.254;4.490;2022-11-20T10:47:25;29.33;;;19.63;;
31004;SDS011;17676;52.254;4.490;2022-11-20T10:49:52;27.60;;;19.07;;
31004;SDS011;17676;52.254;4.490;2022-11-20T10:54:54;28.63;;;19.97;;
31004;SDS011;17676;52.254;4.490;2022-11-20T10:59:59;29.77;;;20.40;;
31004;SDS011;17676;52.254;4.490;2022-11-20T11:02:39;30.90;;;20.93;;
31004;SDS011;17676;52.254;4.490;2022-11-20T11:05:14;25.60;;;19.00;;
31004;SDS011;17676;52.254;4.490;2022-11-20T11:07:41;30.67;;;19.83;;
31004;SDS011;17676;52.254;4.490;2022-11-20T11:12:55;31.60;;;20.30;;
31004;SDS011;17676;52.254;4.490;2022-11-20T11:15:39;32.63;;;21.53;;
31004;SDS011;17676;52.254;4.490;2022-11-20T11:18:05;31.83;;;22.03;;
31004;SDS011;17676;52.254;4.490;2022-11-20T11:20:31;28.63;;;20.03;;
31004;SDS011;17676;52.254;4.490;2022-11-20T11:22:59;34.00;;;22.87;;
31004;SDS011;17676;52.254;4.490;2022-11-20T11:25:29;32.43;;;21.73;;
31004;SDS011;17676;52.254;4.490;2022-11-20T11:27:58;34.70;;;22.50;;
31004;SDS011;17676;52.254;4.490;2022-11-20T11:30:24;37.50;;;21.93;;
31004;SDS011;17676;52.254;4.490;2022-11-20T11:32:50;32.87;;;21.77;;
31004;SDS011;17676;52.254;4.490;2022-11-20T11:35:20;33.67;;;23.33;;
31004;SDS011;17676;52.254;4.490;2022-11-20T11:37:45;33.53;;;22.33;;
31004;SDS011;17676;52.254;4.490;2022-11-20T11:40:12;33.87;;;23.20;;
31004;SDS011;17676;52.254;4.490;2022-11-20T11:42:41;33.83;;;23.10;;
31004;SDS011;17676;52.254;4.490;2022-11-20T11:45:11;37.50;;;22.20;;
31004;SDS011;17676;52.254;4.490;2022-11-20T11:55:07;37.53;;;23.73;;
31004;SDS011;17676;52.254;4.490;2022-11-20T11:57:44;34.03;;;22.57;;
31004;SDS011;17676;52.254;4.490;2022-11-20T12:00:13;35.03;;;24.03;;
31004;SDS011;17676;52.254;4.490;2022-11-20T12:05:23;36.70;;;23.93;;
31004;SDS011;17676;52.254;4.490;2022-11-20T12:07:51;34.67;;;23.77;;
31004;SDS011;17676;52.254;4.490;2022-11-20T12:10:20;35.20;;;24.33;;
31004;SDS011;17676;52.254;4.490;2022-11-20T12:12:48;35.90;;;24.50;;
31004;SDS011;17676;52.254;4.490;2022-11-20T12:15:16;36.93;;;24.13;;
31004;SDS011;17676;52.254;4.490;2022-11-20T12:17:45;37.50;;;21.63;;
31004;SDS011;17676;52.254;4.490;2022-11-20T12:20:13;37.50;;;24.57;;
31004;SDS011;17676;52.254;4.490;2022-11-20T12:30:01;43.30;;;25.60;;
31004;SDS011;17676;52.254;4.490;2022-11-20T12:35:04;37.67;;;23.87;;
31004;SDS011;17676;52.254;4.490;2022-11-20T12:37:43;45.67;;;25.17;;
31004;SDS011;17676;52.254;4.490;2022-11-20T12:42:46;43.13;;;24.53;;
31004;SDS011;17676;52.254;4.490;2022-11-20T12:56:12;46.80;;;26.87;;
31004;SDS011;17676;52.254;4.490;2022-11-20T13:01:30;48.60;;;27.43;;
31004;SDS011;17676;52.254;4.490;2022-11-20T13:06:56;45.80;;;26.80;;
31004;SDS011;17676;52.254;4.490;2022-11-20T13:09:26;45.93;;;26.67;;
31004;SDS011;17676;52.254;4.490;2022-11-20T13:12:03;50.33;;;28.60;;
31004;SDS011;17676;52.254;4.490;2022-11-20T13:17:10;49.23;;;26.73;;
31004;SDS011;17676;52.254;4.490;2022-11-20T13:19:36;50.73;;;28.27;;
31004;SDS011;17676;52.254;4.490;2022-11-20T13:22:02;48.07;;;27.70;;
31004;SDS011;17676;52.254;4.490;2022-11-20T13:24:28;47.90;;;27.80;;
31004;SDS011;17676;52.254;4.490;2022-11-20T13:29:40;59.50;;;28.30;;
31004;SDS011;17676;52.254;4.490;2022-11-20T13:34:38;47.57;;;28.53;;
31004;SDS011;17676;52.254;4.490;2022-11-20T13:37:04;51.23;;;29.37;;
31004;SDS011;17676;52.254;4.490;2022-11-20T13:39:31;63.57;;;31.63;;
31004;SDS011;17676;52.254;4.490;2022-11-20T13:41:58;55.30;;;30.60;;
31004;SDS011;17676;52.254;4.490;2022-11-20T13:46:51;59.57;;;31.40;;
31004;SDS011;17676;52.254;4.490;2022-11-20T13:49:33;57.63;;;31.33;;
31004;SDS011;17676;52.254;4.490;2022-11-20T13:52:07;59.00;;;31.27;;
31004;SDS011;17676;52.254;4.490;2022-11-20T14:02:11;60.90;;;32.73;;
31004;SDS011;17676;52.254;4.490;2022-11-20T14:04:38;62.73;;;32.97;;
31004;SDS011;17676;52.254;4.490;2022-11-20T14:07:06;62.00;;;32.07;;
31004;SDS011;17676;52.254;4.490;2022-11-20T14:09:32;61.80;;;35.20;;
31004;SDS011;17676;52.254;4.490;2022-11-20T14:11:59;61.73;;;34.13;;
31004;SDS011;17676;52.254;4.490;2022-11-20T14:14:25;62.03;;;33.93;;
31004;SDS011;17676;52.254;4.490;2022-11-20T14:16:52;56.97;;;32.30;;
31004;SDS011;17676;52.254;4.490;2022-11-20T14:24:12;64.20;;;33.87;;
31004;SDS011;17676;52.254;4.490;2022-11-20T14:26:38;62.20;;;33.53;;
31004;SDS011;17676;52.254;4.490;2022-11-20T14:29:11;65.60;;;34.30;;
31004;SDS011;17676;52.254;4.490;2022-11-20T14:31:37;74.30;;;36.70;;
31004;SDS011;17676;52.254;4.490;2022-11-20T14:34:02;74.73;;;35.27;;
31004;SDS011;17676;52.254;4.490;2022-11-20T14:36:27;58.07;;;31.67;;
31004;SDS011;17676;52.254;4.490;2022-11-20T14:38:53;67.33;;;34.90;;
31004;SDS011;17676;52.254;4.490;2022-11-20T14:41:20;63.67;;;34.10;;
31004;SDS011;17676;52.254;4.490;2022-11-20T14:44:08;63.50;;;34.07;;
31004;SDS011;17676;52.254;4.490;2022-11-20T14:46:31;64.80;;;33.20;;
31004;SDS011;17676;52.254;4.490;2022-11-20T14:48:57;56.70;;;29.77;;
31004;SDS011;17676;52.254;4.490;2022-11-20T14:51:30;63.87;;;34.23;;
31004;SDS011;17676;52.254;4.490;2022-11-20T14:53:55;64.20;;;33.30;;
31004;SDS011;17676;52.254;4.490;2022-11-20T14:56:22;75.23;;;37.73;;
31004;SDS011;17676;52.254;4.490;2022-11-20T14:58:55;67.27;;;35.93;;
31004;SDS011;17676;52.254;4.490;2022-11-20T15:01:24;63.73;;;35.70;;
31004;SDS011;17676;52.254;4.490;2022-11-20T15:03:56;76.50;;;37.93;;
31004;SDS011;17676;52.254;4.490;2022-11-20T15:06:26;67.03;;;35.20;;
31004;SDS011;17676;52.254;4.490;2022-11-20T15:08:51;70.83;;;38.30;;
31004;SDS011;17676;52.254;4.490;2022-11-20T15:11:38;67.93;;;36.27;;
31004;SDS011;17676;52.254;4.490;2022-11-20T15:14:03;71.83;;;37.87;;
31004;SDS011;17676;52.254;4.490;2022-11-20T15:16:29;71.47;;;37.13;;
31004;SDS011;17676;52.254;4.490;2022-11-20T15:18:55;77.03;;;39.30;;
31004;SDS011;17676;52.254;4.490;2022-11-20T15:21:20;74.57;;;37.83;;
31004;SDS011;17676;52.254;4.490;2022-11-20T15:23:48;74.60;;;39.97;;
31004;SDS011;17676;52.254;4.490;2022-11-20T15:26:15;77.83;;;39.77;;
31004;SDS011;17676;52.254;4.490;2022-11-20T15:28:43;71.50;;;37.83;;
31004;SDS011;17676;52.254;4.490;2022-11-20T15:31:11;72.40;;;41.70;;
31004;SDS011;17676;52.254;4.490;2022-11-20T15:33:36;75.47;;;41.07;;
31004;SDS011;17676;52.254;4.490;2022-11-20T15:36:01;74.53;;;41.60;;
31004;SDS011;17676;52.254;4.490;2022-11-20T15:38:26;70.20;;;40.63;;
31004;SDS011;17676;52.254;4.490;2022-11-20T15:40:52;78.83;;;41.17;;
31004;SDS011;17676;52.254;4.490;2022-11-20T15:43:17;79.27;;;44.13;;
31004;SDS011;17676;52.254;4.490;2022-11-20T15:45:43;76.53;;;43.40;;
31004;SDS011;17676;52.254;4.490;2022-11-20T15:48:17;82.57;;;43.20;;
31004;SDS011;17676;52.254;4.490;2022-11-20T15:53:17;71.50;;;40.37;;
31004;SDS011;17676;52.254;4.490;2022-11-20T15:55:42;77.27;;;39.80;;
31004;SDS011;17676;52.254;4.490;2022-11-20T15:58:07;71.70;;;40.17;;
31004;SDS011;17676;52.254;4.490;2022-11-20T16:00:33;71.23;;;39.47;;
31004;SDS011;17676;52.254;4.490;2022-11-20T16:02:58;86.20;;;44.33;;
31004;SDS011;17676;52.254;4.490;2022-11-20T16:05:23;71.50;;;39.93;;
31004;SDS011;17676;52.254;4.490;2022-11-20T16:07:49;76.17;;;42.00;;
31004;SDS011;17676;52.254;4.490;2022-11-20T16:10:15;70.73;;;39.23;;
31004;SDS011;17676;52.254;4.490;2022-11-20T16:12:40;76.07;;;40.87;;
31004;SDS011;17676;52.254;4.490;2022-11-20T16:15:24;71.43;;;39.87;;
31004;SDS011;17676;52.254;4.490;2022-11-20T16:18:08;72.60;;;39.27;;
31004;SDS011;17676;52.254;4.490;2022-11-20T16:20:35;65.93;;;37.07;;
31004;SDS011;17676;52.254;4.490;2022-11-20T16:23:00;66.77;;;38.33;;
31004;SDS011;17676;52.254;4.490;2022-11-20T16:25:26;63.67;;;37.60;;
31004;SDS011;17676;52.254;4.490;2022-11-20T16:27:52;73.17;;;39.07;;